sensor_id;sensor_type;location;lat;lon;timestamp;P1;durP1;ratioP1;P2;durP2;ratioP2
62435;SDS011;48480;50.252;18.848;2023-05-07T00:00:35;10.50;;;8.20;;
62435;SDS011;48480;50.252;18.848;2023-05-07T00:03:19;11.20;;;8.50;;
62435;SDS011;48480;50.252;18.848;2023-05-07T00:06:04;12.20;;;8.70;;
62435;SDS011;48480;50.252;18.848;2023-05-07T00:08:48;12.60;;;8.80;;
62435;SDS011;48480;50.252;18.848;2023-05-07T00:11:32;11.70;;;10.00;;
62435;SDS011;48480;50.252;18.848;2023-05-07T00:14:16;13.50;;;9.50;;
62435;SDS011;48480;50.252;18.848;2023-05-07T00:17:00;12.00;;;9.20;;
62435;SDS011;48480;50.252;18.848;2023-05-07T00:19:45;12.70;;;10.00;;
62435;SDS011;48480;50.252;18.848;2023-05-07T00:22:29;14.80;;;9.90;;
62435;SDS011;48480;50.252;18.848;2023-05-07T00:25:13;13.30;;;10.30;;
62435;SDS011;48480;50.252;18.848;2023-05-07T00:27:58;13.20;;;10.50;;
62435;SDS011;48480;50.252;18.848;2023-05-07T00:30:47;13.90;;;9.80;;
62435;SDS011;48480;50.252;18.848;2023-05-07T00:33:31;13.00;;;9.60;;
62435;SDS011;48480;50.252;18.848;2023-05-07T00:36:15;12.70;;;9.80;;
62435;SDS011;48480;50.252;18.848;2023-05-07T00:38:59;11.60;;;8.80;;
62435;SDS011;48480;50.252;18.848;2023-05-07T00:41:45;13.90;;;9.70;;
62435;SDS011;48480;50.252;18.848;2023-05-07T00:44:29;13.20;;;10.00;;
62435;SDS011;48480;50.252;18.848;2023-05-07T00:47:14;15.10;;;11.00;;
62435;SDS011;48480;50.252;18.848;2023-05-07T00:49:59;14.40;;;10.20;;
62435;SDS011;48480;50.252;18.848;2023-05-07T00:52:42;15.10;;;10.00;;
62435;SDS011;48480;50.252;18.848;2023-05-07T00:55:26;11.40;;;8.80;;
62435;SDS011;48480;50.252;18.848;2023-05-07T00:58:11;12.20;;;9.70;;
62435;SDS011;48480;50.252;18.848;2023-05-07T01:00:55;11.70;;;9.20;;
62435;SDS011;48480;50.252;18.848;2023-05-07T01:03:39;13.90;;;9.70;;
62435;SDS011;48480;50.252;18.848;2023-05-07T01:06:24;13.00;;;9.30;;
62435;SDS011;48480;50.252;18.848;2023-05-07T01:09:09;12.40;;;9.30;;
62435;SDS011;48480;50.252;18.848;2023-05-07T01:11:53;12.00;;;8.70;;
62435;SDS011;48480;50.252;18.848;2023-05-07T01:14:40;11.40;;;8.80;;
62435;SDS011;48480;50.252;18.848;2023-05-07T01:17:25;10.50;;;8.00;;
62435;SDS011;48480;50.252;18.848;2023-05-07T01:20:09;13.20;;;9.60;;
62435;SDS011;48480;50.252;18.848;2023-05-07T01:22:54;11.30;;;9.30;;
62435;SDS011;48480;50.252;18.848;2023-05-07T01:25:39;13.10;;;9.40;;
62435;SDS011;48480;50.252;18.848;2023-05-07T01:28:23;13.80;;;10.30;;
62435;SDS011;48480;50.252;18.848;2023-05-07T01:31:06;18.90;;;10.90;;
62435;SDS011;48480;50.252;18.848;2023-05-07T01:33:51;16.00;;;11.10;;
62435;SDS011;48480;50.252;18.848;2023-05-07T01:36:37;15.10;;;11.00;;
62435;SDS011;48480;50.252;18.848;2023-05-07T01:39:24;16.60;;;11.90;;
62435;SDS011;48480;50.252;18.848;2023-05-07T01:42:09;18.60;;;11.90;;
62435;SDS011;48480;50.252;18.848;2023-05-07T01:44:53;22.20;;;14.70;;
62435;SDS011;48480;50.252;18.848;2023-05-07T01:47:37;21.30;;;15.20;;
62435;SDS011;48480;50.252;18.848;2023-05-07T01:50:22;23.70;;;14.80;;
62435;SDS011;48480;50.252;18.848;2023-05-07T01:53:07;28.10;;;17.00;;
62435;SDS011;48480;50.252;18.848;2023-05-07T01:55:51;21.60;;;14.60;;
62435;SDS011;48480;50.252;18.848;2023-05-07T01:58:35;22.20;;;14.80;;
62435;SDS011;48480;50.252;18.848;2023-05-07T02:01:19;17.80;;;13.00;;
62435;SDS011;48480;50.252;18.848;2023-05-07T02:04:03;21.10;;;12.90;;
62435;SDS011;48480;50.252;18.848;2023-05-07T02:06:47;20.90;;;12.50;;
62435;SDS011;48480;50.252;18.848;2023-05-07T02:09:31;19.30;;;12.30;;
62435;SDS011;48480;50.252;18.848;2023-05-07T02:12:15;21.90;;;13.70;;
62435;SDS011;48480;50.252;18.848;2023-05-07T02:14:59;21.10;;;14.40;;
62435;SDS011;48480;50.252;18.848;2023-05-07T02:18:03;21.90;;;13.60;;
62435;SDS011;48480;50.252;18.848;2023-05-07T02:20:49;19.30;;;12.70;;
62435;SDS011;48480;50.252;18.848;2023-05-07T02:23:34;27.00;;;16.90;;
62435;SDS011;48480;50.252;18.848;2023-05-07T02:26:18;27.60;;;16.80;;
62435;SDS011;48480;50.252;18.848;2023-05-07T02:29:02;23.50;;;15.90;;
62435;SDS011;48480;50.252;18.848;2023-05-07T02:31:46;21.00;;;14.30;;
62435;SDS011;48480;50.252;18.848;2023-05-07T02:34:34;20.00;;;14.20;;
62435;SDS011;48480;50.252;18.848;2023-05-07T02:37:18;21.30;;;14.50;;
62435;SDS011;48480;50.252;18.848;2023-05-07T02:40:02;21.10;;;14.50;;
62435;SDS011;48480;50.252;18.848;2023-05-07T02:42:47;31.80;;;21.90;;
62435;SDS011;48480;50.252;18.848;2023-05-07T02:45:32;44.80;;;26.20;;
62435;SDS011;48480;50.252;18.848;2023-05-07T02:48:16;43.10;;;26.10;;
62435;SDS011;48480;50.252;18.848;2023-05-07T02:51:00;36.60;;;23.70;;
62435;SDS011;48480;50.252;18.848;2023-05-07T02:53:47;35.20;;;21.60;;
62435;SDS011;48480;50.252;18.848;2023-05-07T02:56:31;31.40;;;18.80;;
62435;SDS011;48480;50.252;18.848;2023-05-07T02:59:14;26.10;;;16.30;;
62435;SDS011;48480;50.252;18.848;2023-05-07T03:01:58;19.90;;;13.70;;
62435;SDS011;48480;50.252;18.848;2023-05-07T03:04:43;19.10;;;13.30;;
62435;SDS011;48480;50.252;18.848;2023-05-07T03:07:27;14.70;;;11.80;;
62435;SDS011;48480;50.252;18.848;2023-05-07T03:10:11;13.80;;;9.60;;
62435;SDS011;48480;50.252;18.848;2023-05-07T03:12:55;12.80;;;8.30;;
62435;SDS011;48480;50.252;18.848;2023-05-07T03:15:39;11.20;;;7.50;;
62435;SDS011;48480;50.252;18.848;2023-05-07T03:18:23;8.10;;;5.60;;
62435;SDS011;48480;50.252;18.848;2023-05-07T03:21:07;7.40;;;5.10;;
62435;SDS011;48480;50.252;18.848;2023-05-07T03:23:51;6.10;;;4.40;;
62435;SDS011;48480;50.252;18.848;2023-05-07T03:26:35;5.60;;;4.30;;
62435;SDS011;48480;50.252;18.848;2023-05-07T03:29:19;4.90;;;4.10;;
62435;SDS011;48480;50.252;18.848;2023-05-07T03:32:03;6.60;;;4.40;;
62435;SDS011;48480;50.252;18.848;2023-05-07T03:34:47;5.10;;;4.00;;
62435;SDS011;48480;50.252;18.848;2023-05-07T03:37:31;5.50;;;3.70;;
62435;SDS011;48480;50.252;18.848;2023-05-07T03:40:15;4.90;;;2.90;;
62435;SDS011;48480;50.252;18.848;2023-05-07T03:43:00;4.40;;;3.00;;
62435;SDS011;48480;50.252;18.848;2023-05-07T03:45:44;4.50;;;2.90;;
62435;SDS011;48480;50.252;18.848;2023-05-07T03:48:29;4.40;;;3.20;;
62435;SDS011;48480;50.252;18.848;2023-05-07T03:51:13;6.00;;;3.70;;
62435;SDS011;48480;50.252;18.848;2023-05-07T03:53:57;3.40;;;2.70;;
62435;SDS011;48480;50.252;18.848;2023-05-07T03:56:41;4.70;;;2.90;;
62435;SDS011;48480;50.252;18.848;2023-05-07T03:59:25;4.80;;;2.80;;
62435;SDS011;48480;50.252;18.848;2023-05-07T04:02:09;4.00;;;2.60;;
62435;SDS011;48480;50.252;18.848;2023-05-07T04:04:53;4.30;;;2.80;;
62435;SDS011;48480;50.252;18.848;2023-05-07T04:07:37;5.20;;;3.00;;
62435;SDS011;48480;50.252;18.848;2023-05-07T04:10:21;6.30;;;3.50;;
62435;SDS011;48480;50.252;18.848;2023-05-07T04:13:05;5.40;;;4.20;;
62435;SDS011;48480;50.252;18.848;2023-05-07T04:15:49;4.90;;;3.60;;
62435;SDS011;48480;50.252;18.848;2023-05-07T04:18:34;4.60;;;3.20;;
62435;SDS011;48480;50.252;18.848;2023-05-07T04:21:19;6.70;;;2.90;;
62435;SDS011;48480;50.252;18.848;2023-05-07T04:24:04;4.70;;;3.00;;
62435;SDS011;48480;50.252;18.848;2023-05-07T04:26:48;6.10;;;3.60;;
62435;SDS011;48480;50.252;18.848;2023-05-07T04:29:34;4.20;;;3.40;;
62435;SDS011;48480;50.252;18.848;2023-05-07T04:32:18;5.50;;;3.50;;
62435;SDS011;48480;50.252;18.848;2023-05-07T04:35:02;4.00;;;3.20;;
62435;SDS011;48480;50.252;18.848;2023-05-07T04:37:47;4.50;;;3.30;;
62435;SDS011;48480;50.252;18.848;2023-05-07T04:40:31;4.50;;;3.30;;
62435;SDS011;48480;50.252;18.848;2023-05-07T04:43:15;4.80;;;3.40;;
62435;SDS011;48480;50.252;18.848;2023-05-07T04:45:59;4.20;;;2.70;;
62435;SDS011;48480;50.252;18.848;2023-05-07T04:48:44;4.20;;;2.80;;
62435;SDS011;48480;50.252;18.848;2023-05-07T04:51:28;3.50;;;2.50;;
62435;SDS011;48480;50.252;18.848;2023-05-07T04:54:12;3.90;;;2.40;;
62435;SDS011;48480;50.252;18.848;2023-05-07T04:56:56;4.60;;;2.80;;
62435;SDS011;48480;50.252;18.848;2023-05-07T04:59:40;4.00;;;2.80;;
62435;SDS011;48480;50.252;18.848;2023-05-07T05:02:27;5.00;;;3.10;;
62435;SDS011;48480;50.252;18.848;2023-05-07T05:05:11;4.00;;;2.60;;
62435;SDS011;48480;50.252;18.848;2023-05-07T05:07:55;4.10;;;3.00;;
62435;SDS011;48480;50.252;18.848;2023-05-07T05:10:39;3.70;;;2.60;;
62435;SDS011;48480;50.252;18.848;2023-05-07T05:13:25;4.10;;;2.80;;
62435;SDS011;48480;50.252;18.848;2023-05-07T05:16:09;5.10;;;3.00;;
62435;SDS011;48480;50.252;18.848;2023-05-07T05:18:52;5.30;;;3.50;;
62435;SDS011;48480;50.252;18.848;2023-05-07T05:21:38;4.90;;;2.90;;
62435;SDS011;48480;50.252;18.848;2023-05-07T05:24:22;4.70;;;3.40;;
62435;SDS011;48480;50.252;18.848;2023-05-07T05:27:06;6.80;;;5.70;;
62435;SDS011;48480;50.252;18.848;2023-05-07T05:29:50;5.00;;;3.20;;
62435;SDS011;48480;50.252;18.848;2023-05-07T05:32:34;4.50;;;3.30;;
62435;SDS011;48480;50.252;18.848;2023-05-07T05:35:18;4.30;;;3.10;;
62435;SDS011;48480;50.252;18.848;2023-05-07T05:38:02;4.60;;;3.20;;
62435;SDS011;48480;50.252;18.848;2023-05-07T05:40:47;3.90;;;2.90;;
62435;SDS011;48480;50.252;18.848;2023-05-07T05:43:31;3.00;;;2.50;;
62435;SDS011;48480;50.252;18.848;2023-05-07T05:46:15;4.10;;;2.60;;
62435;SDS011;48480;50.252;18.848;2023-05-07T05:48:59;3.70;;;3.10;;
62435;SDS011;48480;50.252;18.848;2023-05-07T05:51:42;4.40;;;2.80;;
62435;SDS011;48480;50.252;18.848;2023-05-07T05:54:27;3.60;;;2.80;;
62435;SDS011;48480;50.252;18.848;2023-05-07T05:57:11;3.70;;;3.30;;
62435;SDS011;48480;50.252;18.848;2023-05-07T05:59:55;4.20;;;3.30;;
62435;SDS011;48480;50.252;18.848;2023-05-07T06:02:39;4.80;;;3.60;;
62435;SDS011;48480;50.252;18.848;2023-05-07T06:05:23;4.30;;;3.40;;
62435;SDS011;48480;50.252;18.848;2023-05-07T06:08:07;4.20;;;3.50;;
62435;SDS011;48480;50.252;18.848;2023-05-07T06:10:51;5.60;;;3.80;;
62435;SDS011;48480;50.252;18.848;2023-05-07T06:13:35;8.10;;;6.00;;
62435;SDS011;48480;50.252;18.848;2023-05-07T06:16:20;9.70;;;7.00;;
62435;SDS011;48480;50.252;18.848;2023-05-07T06:19:04;11.20;;;7.50;;
62435;SDS011;48480;50.252;18.848;2023-05-07T06:21:49;16.00;;;10.50;;
62435;SDS011;48480;50.252;18.848;2023-05-07T06:24:34;10.30;;;7.30;;
62435;SDS011;48480;50.252;18.848;2023-05-07T06:27:21;9.30;;;7.00;;
62435;SDS011;48480;50.252;18.848;2023-05-07T06:30:05;8.50;;;5.70;;
62435;SDS011;48480;50.252;18.848;2023-05-07T06:32:50;6.30;;;3.70;;
62435;SDS011;48480;50.252;18.848;2023-05-07T06:35:34;5.20;;;3.50;;
62435;SDS011;48480;50.252;18.848;2023-05-07T06:38:18;6.10;;;3.20;;
62435;SDS011;48480;50.252;18.848;2023-05-07T06:41:01;4.70;;;3.10;;
62435;SDS011;48480;50.252;18.848;2023-05-07T06:43:45;4.60;;;2.50;;
62435;SDS011;48480;50.252;18.848;2023-05-07T06:46:27;4.80;;;2.90;;
62435;SDS011;48480;50.252;18.848;2023-05-07T06:49:12;4.60;;;3.20;;
62435;SDS011;48480;50.252;18.848;2023-05-07T06:51:59;4.80;;;3.30;;
62435;SDS011;48480;50.252;18.848;2023-05-07T06:54:43;5.00;;;3.40;;
62435;SDS011;48480;50.252;18.848;2023-05-07T06:57:27;5.50;;;3.20;;
62435;SDS011;48480;50.252;18.848;2023-05-07T07:00:12;5.70;;;3.70;;
62435;SDS011;48480;50.252;18.848;2023-05-07T07:02:57;5.30;;;4.10;;
62435;SDS011;48480;50.252;18.848;2023-05-07T07:05:41;4.80;;;4.10;;
62435;SDS011;48480;50.252;18.848;2023-05-07T07:08:25;5.60;;;3.60;;
62435;SDS011;48480;50.252;18.848;2023-05-07T07:11:10;3.60;;;2.90;;
62435;SDS011;48480;50.252;18.848;2023-05-07T07:13:54;5.20;;;2.50;;
62435;SDS011;48480;50.252;18.848;2023-05-07T07:16:38;4.40;;;3.00;;
62435;SDS011;48480;50.252;18.848;2023-05-07T07:19:21;5.90;;;2.90;;
62435;SDS011;48480;50.252;18.848;2023-05-07T07:22:05;4.00;;;2.40;;
62435;SDS011;48480;50.252;18.848;2023-05-07T07:24:50;3.80;;;2.20;;
62435;SDS011;48480;50.252;18.848;2023-05-07T07:27:34;3.40;;;2.40;;
62435;SDS011;48480;50.252;18.848;2023-05-07T07:30:18;3.90;;;2.40;;
62435;SDS011;48480;50.252;18.848;2023-05-07T07:33:02;5.20;;;3.10;;
62435;SDS011;48480;50.252;18.848;2023-05-07T07:35:46;7.10;;;4.50;;
62435;SDS011;48480;50.252;18.848;2023-05-07T07:38:30;4.50;;;3.10;;
62435;SDS011;48480;50.252;18.848;2023-05-07T07:41:15;6.70;;;4.10;;
62435;SDS011;48480;50.252;18.848;2023-05-07T07:43:59;4.40;;;3.00;;
62435;SDS011;48480;50.252;18.848;2023-05-07T07:46:43;5.30;;;3.50;;
62435;SDS011;48480;50.252;18.848;2023-05-07T07:49:26;7.10;;;4.90;;
62435;SDS011;48480;50.252;18.848;2023-05-07T07:52:10;5.90;;;4.50;;
62435;SDS011;48480;50.252;18.848;2023-05-07T07:54:54;4.60;;;3.00;;
62435;SDS011;48480;50.252;18.848;2023-05-07T07:57:38;4.10;;;2.90;;
62435;SDS011;48480;50.252;18.848;2023-05-07T08:00:23;4.40;;;2.70;;
62435;SDS011;48480;50.252;18.848;2023-05-07T08:03:10;5.30;;;3.70;;
62435;SDS011;48480;50.252;18.848;2023-05-07T08:05:56;4.20;;;3.00;;
62435;SDS011;48480;50.252;18.848;2023-05-07T08:08:40;4.20;;;2.70;;
62435;SDS011;48480;50.252;18.848;2023-05-07T08:11:24;5.40;;;4.00;;
62435;SDS011;48480;50.252;18.848;2023-05-07T08:14:09;4.30;;;3.80;;
62435;SDS011;48480;50.252;18.848;2023-05-07T08:16:55;6.40;;;5.60;;
62435;SDS011;48480;50.252;18.848;2023-05-07T08:19:38;4.80;;;3.50;;
62435;SDS011;48480;50.252;18.848;2023-05-07T08:22:22;6.70;;;4.60;;
62435;SDS011;48480;50.252;18.848;2023-05-07T08:25:06;4.40;;;3.00;;
62435;SDS011;48480;50.252;18.848;2023-05-07T08:27:51;5.20;;;3.10;;
62435;SDS011;48480;50.252;18.848;2023-05-07T08:30:35;11.80;;;6.00;;
62435;SDS011;48480;50.252;18.848;2023-05-07T08:33:19;5.40;;;3.70;;
62435;SDS011;48480;50.252;18.848;2023-05-07T08:36:03;4.90;;;4.20;;
62435;SDS011;48480;50.252;18.848;2023-05-07T08:38:48;5.80;;;5.20;;
62435;SDS011;48480;50.252;18.848;2023-05-07T08:41:33;5.30;;;3.80;;
62435;SDS011;48480;50.252;18.848;2023-05-07T08:44:18;7.50;;;4.20;;
62435;SDS011;48480;50.252;18.848;2023-05-07T08:47:06;5.10;;;4.50;;
62435;SDS011;48480;50.252;18.848;2023-05-07T08:49:50;7.40;;;4.50;;
62435;SDS011;48480;50.252;18.848;2023-05-07T08:52:35;7.10;;;4.70;;
62435;SDS011;48480;50.252;18.848;2023-05-07T08:55:20;6.60;;;4.30;;
62435;SDS011;48480;50.252;18.848;2023-05-07T08:58:05;9.90;;;7.70;;
62435;SDS011;48480;50.252;18.848;2023-05-07T09:00:50;11.90;;;10.70;;
62435;SDS011;48480;50.252;18.848;2023-05-07T09:03:37;17.70;;;16.20;;
62435;SDS011;48480;50.252;18.848;2023-05-07T09:06:22;22.00;;;20.00;;
62435;SDS011;48480;50.252;18.848;2023-05-07T09:09:06;26.90;;;24.30;;
62435;SDS011;48480;50.252;18.848;2023-05-07T09:11:56;15.80;;;14.30;;
62435;SDS011;48480;50.252;18.848;2023-05-07T09:14:40;17.50;;;15.90;;
62435;SDS011;48480;50.252;18.848;2023-05-07T09:17:25;6.40;;;4.70;;
62435;SDS011;48480;50.252;18.848;2023-05-07T09:20:09;5.50;;;4.90;;
62435;SDS011;48480;50.252;18.848;2023-05-07T09:22:55;5.00;;;4.30;;
62435;SDS011;48480;50.252;18.848;2023-05-07T09:25:39;7.00;;;4.70;;
62435;SDS011;48480;50.252;18.848;2023-05-07T09:28:23;5.50;;;5.00;;
62435;SDS011;48480;50.252;18.848;2023-05-07T09:31:08;5.60;;;4.80;;
62435;SDS011;48480;50.252;18.848;2023-05-07T09:33:52;8.70;;;5.40;;
62435;SDS011;48480;50.252;18.848;2023-05-07T09:36:45;8.90;;;6.60;;
62435;SDS011;48480;50.252;18.848;2023-05-07T09:39:40;7.60;;;5.90;;
62435;SDS011;48480;50.252;18.848;2023-05-07T09:42:28;5.10;;;4.30;;
62435;SDS011;48480;50.252;18.848;2023-05-07T09:45:13;4.90;;;4.20;;
62435;SDS011;48480;50.252;18.848;2023-05-07T09:47:57;5.60;;;4.00;;
62435;SDS011;48480;50.252;18.848;2023-05-07T09:50:51;5.90;;;4.40;;
62435;SDS011;48480;50.252;18.848;2023-05-07T09:53:42;5.50;;;3.80;;
62435;SDS011;48480;50.252;18.848;2023-05-07T09:56:27;4.70;;;3.60;;
62435;SDS011;48480;50.252;18.848;2023-05-07T09:59:15;7.10;;;4.70;;
62435;SDS011;48480;50.252;18.848;2023-05-07T10:02:00;7.10;;;4.90;;
62435;SDS011;48480;50.252;18.848;2023-05-07T10:07:37;8.00;;;5.50;;
62435;SDS011;48480;50.252;18.848;2023-05-07T10:10:21;5.70;;;4.90;;
62435;SDS011;48480;50.252;18.848;2023-05-07T10:13:07;7.30;;;5.40;;
62435;SDS011;48480;50.252;18.848;2023-05-07T10:15:55;13.40;;;6.00;;
62435;SDS011;48480;50.252;18.848;2023-05-07T10:18:40;10.90;;;7.40;;
62435;SDS011;48480;50.252;18.848;2023-05-07T10:21:26;9.40;;;6.10;;
62435;SDS011;48480;50.252;18.848;2023-05-07T10:24:19;5.40;;;4.40;;
62435;SDS011;48480;50.252;18.848;2023-05-07T10:27:07;5.60;;;4.20;;
62435;SDS011;48480;50.252;18.848;2023-05-07T10:33:01;7.10;;;4.80;;
62435;SDS011;48480;50.252;18.848;2023-05-07T10:35:49;5.50;;;4.20;;
62435;SDS011;48480;50.252;18.848;2023-05-07T10:38:34;6.80;;;5.30;;
62435;SDS011;48480;50.252;18.848;2023-05-07T10:41:18;6.30;;;4.60;;
62435;SDS011;48480;50.252;18.848;2023-05-07T10:44:04;5.80;;;5.10;;
62435;SDS011;48480;50.252;18.848;2023-05-07T10:52:39;10.90;;;7.80;;
62435;SDS011;48480;50.252;18.848;2023-05-07T10:55:23;9.30;;;6.40;;
62435;SDS011;48480;50.252;18.848;2023-05-07T11:01:07;4.80;;;3.70;;
62435;SDS011;48480;50.252;18.848;2023-05-07T11:15:39;5.00;;;3.90;;
62435;SDS011;48480;50.252;18.848;2023-05-07T11:18:26;6.40;;;4.10;;
62435;SDS011;48480;50.252;18.848;2023-05-07T11:21:34;5.70;;;4.10;;
62435;SDS011;48480;50.252;18.848;2023-05-07T11:24:19;4.90;;;4.10;;
62435;SDS011;48480;50.252;18.848;2023-05-07T11:27:05;5.70;;;4.10;;
62435;SDS011;48480;50.252;18.848;2023-05-07T11:29:49;8.20;;;4.40;;
62435;SDS011;48480;50.252;18.848;2023-05-07T11:32:34;4.60;;;4.10;;
62435;SDS011;48480;50.252;18.848;2023-05-07T11:35:22;5.60;;;4.60;;
62435;SDS011;48480;50.252;18.848;2023-05-07T11:38:07;5.80;;;5.00;;
62435;SDS011;48480;50.252;18.848;2023-05-07T11:40:51;6.40;;;5.10;;
62435;SDS011;48480;50.252;18.848;2023-05-07T11:43:56;6.70;;;5.60;;
62435;SDS011;48480;50.252;18.848;2023-05-07T11:46:42;7.10;;;6.30;;
62435;SDS011;48480;50.252;18.848;2023-05-07T11:49:28;5.00;;;4.20;;
62435;SDS011;48480;50.252;18.848;2023-05-07T11:52:13;5.20;;;3.70;;
62435;SDS011;48480;50.252;18.848;2023-05-07T11:54:58;4.70;;;3.90;;
62435;SDS011;48480;50.252;18.848;2023-05-07T11:57:43;6.50;;;4.90;;
62435;SDS011;48480;50.252;18.848;2023-05-07T12:00:35;6.10;;;5.10;;
62435;SDS011;48480;50.252;18.848;2023-05-07T12:03:27;4.90;;;2.70;;
62435;SDS011;48480;50.252;18.848;2023-05-07T12:06:11;4.00;;;3.30;;
62435;SDS011;48480;50.252;18.848;2023-05-07T12:08:59;5.20;;;3.80;;
62435;SDS011;48480;50.252;18.848;2023-05-07T12:11:45;7.70;;;6.30;;
62435;SDS011;48480;50.252;18.848;2023-05-07T12:14:30;11.40;;;10.30;;
62435;SDS011;48480;50.252;18.848;2023-05-07T12:17:14;9.50;;;7.70;;
62435;SDS011;48480;50.252;18.848;2023-05-07T12:19:58;6.90;;;6.00;;
62435;SDS011;48480;50.252;18.848;2023-05-07T12:22:51;6.10;;;5.50;;
62435;SDS011;48480;50.252;18.848;2023-05-07T12:25:36;7.10;;;5.80;;
62435;SDS011;48480;50.252;18.848;2023-05-07T12:28:26;6.50;;;4.80;;
62435;SDS011;48480;50.252;18.848;2023-05-07T12:31:10;5.30;;;4.40;;
62435;SDS011;48480;50.252;18.848;2023-05-07T12:33:54;5.20;;;4.10;;
62435;SDS011;48480;50.252;18.848;2023-05-07T12:36:38;6.40;;;5.10;;
62435;SDS011;48480;50.252;18.848;2023-05-07T12:39:29;5.90;;;4.40;;
62435;SDS011;48480;50.252;18.848;2023-05-07T12:42:15;8.10;;;5.60;;
62435;SDS011;48480;50.252;18.848;2023-05-07T12:45:00;8.40;;;6.50;;
62435;SDS011;48480;50.252;18.848;2023-05-07T12:47:56;6.40;;;4.90;;
62435;SDS011;48480;50.252;18.848;2023-05-07T12:50:49;4.00;;;3.60;;
62435;SDS011;48480;50.252;18.848;2023-05-07T12:53:33;6.60;;;5.20;;
62435;SDS011;48480;50.252;18.848;2023-05-07T12:56:35;4.70;;;3.60;;
62435;SDS011;48480;50.252;18.848;2023-05-07T12:59:19;4.40;;;3.50;;
62435;SDS011;48480;50.252;18.848;2023-05-07T13:02:15;5.00;;;3.90;;
62435;SDS011;48480;50.252;18.848;2023-05-07T13:04:59;19.40;;;13.20;;
62435;SDS011;48480;50.252;18.848;2023-05-07T13:07:52;6.70;;;5.80;;
62435;SDS011;48480;50.252;18.848;2023-05-07T13:10:40;7.00;;;6.30;;
62435;SDS011;48480;50.252;18.848;2023-05-07T13:13:24;6.70;;;6.10;;
62435;SDS011;48480;50.252;18.848;2023-05-07T13:16:10;8.90;;;7.50;;
62435;SDS011;48480;50.252;18.848;2023-05-07T13:18:55;7.40;;;6.70;;
62435;SDS011;48480;50.252;18.848;2023-05-07T13:21:39;7.30;;;5.40;;
62435;SDS011;48480;50.252;18.848;2023-05-07T13:24:22;5.60;;;5.00;;
62435;SDS011;48480;50.252;18.848;2023-05-07T13:27:06;5.70;;;5.10;;
62435;SDS011;48480;50.252;18.848;2023-05-07T13:29:50;5.50;;;3.90;;
62435;SDS011;48480;50.252;18.848;2023-05-07T13:32:34;6.40;;;4.80;;
62435;SDS011;48480;50.252;18.848;2023-05-07T13:35:18;6.90;;;4.50;;
62435;SDS011;48480;50.252;18.848;2023-05-07T13:38:08;7.60;;;6.20;;
62435;SDS011;48480;50.252;18.848;2023-05-07T13:40:52;5.90;;;4.50;;
62435;SDS011;48480;50.252;18.848;2023-05-07T13:43:36;6.10;;;4.50;;
62435;SDS011;48480;50.252;18.848;2023-05-07T13:46:21;4.90;;;3.90;;
62435;SDS011;48480;50.252;18.848;2023-05-07T13:49:05;6.50;;;5.30;;
62435;SDS011;48480;50.252;18.848;2023-05-07T13:51:59;6.60;;;5.90;;
62435;SDS011;48480;50.252;18.848;2023-05-07T13:54:54;6.20;;;4.80;;
62435;SDS011;48480;50.252;18.848;2023-05-07T13:57:53;5.60;;;4.40;;
62435;SDS011;48480;50.252;18.848;2023-05-07T14:00:42;5.20;;;4.70;;
62435;SDS011;48480;50.252;18.848;2023-05-07T14:03:34;4.90;;;4.00;;
62435;SDS011;48480;50.252;18.848;2023-05-07T14:06:21;6.00;;;4.30;;
62435;SDS011;48480;50.252;18.848;2023-05-07T14:09:05;5.60;;;4.60;;
62435;SDS011;48480;50.252;18.848;2023-05-07T14:11:52;5.90;;;4.70;;
62435;SDS011;48480;50.252;18.848;2023-05-07T14:14:36;4.50;;;3.90;;
62435;SDS011;48480;50.252;18.848;2023-05-07T14:17:20;4.40;;;3.50;;
62435;SDS011;48480;50.252;18.848;2023-05-07T14:20:16;5.20;;;3.70;;
62435;SDS011;48480;50.252;18.848;2023-05-07T14:23:01;9.90;;;6.50;;
62435;SDS011;48480;50.252;18.848;2023-05-07T14:25:45;7.20;;;5.10;;
62435;SDS011;48480;50.252;18.848;2023-05-07T14:28:37;6.60;;;4.90;;
62435;SDS011;48480;50.252;18.848;2023-05-07T14:31:23;6.20;;;4.40;;
62435;SDS011;48480;50.252;18.848;2023-05-07T14:34:09;10.70;;;4.20;;
62435;SDS011;48480;50.252;18.848;2023-05-07T14:36:54;5.20;;;4.00;;
62435;SDS011;48480;50.252;18.848;2023-05-07T14:39:43;5.20;;;4.20;;
62435;SDS011;48480;50.252;18.848;2023-05-07T14:42:30;6.20;;;4.10;;
62435;SDS011;48480;50.252;18.848;2023-05-07T14:45:15;5.80;;;3.80;;
62435;SDS011;48480;50.252;18.848;2023-05-07T14:47:59;6.10;;;4.00;;
62435;SDS011;48480;50.252;18.848;2023-05-07T14:50:53;11.30;;;8.40;;
62435;SDS011;48480;50.252;18.848;2023-05-07T14:53:37;6.60;;;5.40;;
62435;SDS011;48480;50.252;18.848;2023-05-07T14:56:22;5.70;;;4.30;;
62435;SDS011;48480;50.252;18.848;2023-05-07T14:59:05;6.10;;;4.70;;
62435;SDS011;48480;50.252;18.848;2023-05-07T15:01:51;5.70;;;4.50;;
62435;SDS011;48480;50.252;18.848;2023-05-07T15:04:34;6.80;;;4.70;;
62435;SDS011;48480;50.252;18.848;2023-05-07T15:07:21;6.70;;;5.70;;
62435;SDS011;48480;50.252;18.848;2023-05-07T15:10:05;7.00;;;4.40;;
62435;SDS011;48480;50.252;18.848;2023-05-07T15:12:50;6.10;;;4.40;;
62435;SDS011;48480;50.252;18.848;2023-05-07T15:15:34;6.40;;;5.30;;
62435;SDS011;48480;50.252;18.848;2023-05-07T15:18:18;7.20;;;4.70;;
62435;SDS011;48480;50.252;18.848;2023-05-07T15:21:09;6.70;;;4.70;;
62435;SDS011;48480;50.252;18.848;2023-05-07T15:23:54;6.20;;;5.00;;
62435;SDS011;48480;50.252;18.848;2023-05-07T15:26:38;6.30;;;4.60;;
62435;SDS011;48480;50.252;18.848;2023-05-07T15:29:22;6.00;;;4.90;;
62435;SDS011;48480;50.252;18.848;2023-05-07T15:32:06;6.50;;;5.20;;
62435;SDS011;48480;50.252;18.848;2023-05-07T15:34:50;6.00;;;5.30;;
62435;SDS011;48480;50.252;18.848;2023-05-07T15:37:34;6.50;;;4.60;;
62435;SDS011;48480;50.252;18.848;2023-05-07T15:40:25;5.60;;;4.40;;
62435;SDS011;48480;50.252;18.848;2023-05-07T15:43:09;5.70;;;4.30;;
62435;SDS011;48480;50.252;18.848;2023-05-07T15:45:53;8.90;;;6.70;;
62435;SDS011;48480;50.252;18.848;2023-05-07T15:48:38;5.80;;;5.00;;
62435;SDS011;48480;50.252;18.848;2023-05-07T15:51:22;32.80;;;16.10;;
62435;SDS011;48480;50.252;18.848;2023-05-07T15:54:15;76.80;;;46.30;;
62435;SDS011;48480;50.252;18.848;2023-05-07T15:57:07;12.40;;;9.70;;
62435;SDS011;48480;50.252;18.848;2023-05-07T15:59:51;11.50;;;9.70;;
62435;SDS011;48480;50.252;18.848;2023-05-07T16:02:42;8.30;;;6.10;;
62435;SDS011;48480;50.252;18.848;2023-05-07T16:05:26;7.50;;;6.00;;
62435;SDS011;48480;50.252;18.848;2023-05-07T16:08:10;7.50;;;5.90;;
62435;SDS011;48480;50.252;18.848;2023-05-07T16:10:54;6.50;;;5.60;;
62435;SDS011;48480;50.252;18.848;2023-05-07T16:13:38;6.40;;;4.60;;
62435;SDS011;48480;50.252;18.848;2023-05-07T16:16:22;7.20;;;5.50;;
62435;SDS011;48480;50.252;18.848;2023-05-07T16:19:09;7.40;;;5.10;;
62435;SDS011;48480;50.252;18.848;2023-05-07T16:21:54;12.00;;;8.00;;
62435;SDS011;48480;50.252;18.848;2023-05-07T16:24:38;8.20;;;5.80;;
62435;SDS011;48480;50.252;18.848;2023-05-07T16:27:29;9.50;;;5.70;;
62435;SDS011;48480;50.252;18.848;2023-05-07T16:30:13;9.20;;;6.90;;
62435;SDS011;48480;50.252;18.848;2023-05-07T16:32:57;9.80;;;6.70;;
62435;SDS011;48480;50.252;18.848;2023-05-07T16:35:42;9.20;;;5.90;;
62435;SDS011;48480;50.252;18.848;2023-05-07T16:38:36;8.20;;;5.80;;
62435;SDS011;48480;50.252;18.848;2023-05-07T16:41:21;10.20;;;6.80;;